sensor_id;sensor_type;location;lat;lon;timestamp;P1;durP1;ratioP1;P2;durP2;ratioP2
10122;SDS011;5101;49.038;8.710;2022-08-19T00:00:20;12.80;;;11.60;;
10122;SDS011;5101;49.038;8.710;2022-08-19T00:02:46;13.25;;;11.75;;
10122;SDS011;5101;49.038;8.710;2022-08-19T00:05:13;14.95;;;12.73;;
10122;SDS011;5101;49.038;8.710;2022-08-19T00:07:40;13.55;;;12.15;;
10122;SDS011;5101;49.038;8.710;2022-08-19T00:10:08;17.02;;;12.35;;
10122;SDS011;5101;49.038;8.710;2022-08-19T00:12:35;13.80;;;12.40;;
10122;SDS011;5101;49.038;8.710;2022-08-19T00:15:03;14.30;;;12.93;;
10122;SDS011;5101;49.038;8.710;2022-08-19T00:17:29;13.75;;;12.45;;
10122;SDS011;5101;49.038;8.710;2022-08-19T00:19:55;14.32;;;13.02;;
10122;SDS011;5101;49.038;8.710;2022-08-19T00:22:20;15.07;;;13.60;;
10122;SDS011;5101;49.038;8.710;2022-08-19T00:24:46;14.23;;;12.82;;
10122;SDS011;5101;49.038;8.710;2022-08-19T00:27:12;13.88;;;12.43;;
10122;SDS011;5101;49.038;8.710;2022-08-19T00:29:38;13.98;;;12.60;;
10122;SDS011;5101;49.038;8.710;2022-08-19T00:32:04;14.43;;;12.85;;
10122;SDS011;5101;49.038;8.710;2022-08-19T00:34:30;13.52;;;12.13;;
10122;SDS011;5101;49.038;8.710;2022-08-19T00:36:56;14.25;;;12.85;;
10122;SDS011;5101;49.038;8.710;2022-08-19T00:39:22;14.10;;;12.70;;
10122;SDS011;5101;49.038;8.710;2022-08-19T00:41:50;14.15;;;12.85;;
10122;SDS011;5101;49.038;8.710;2022-08-19T00:44:23;13.95;;;12.65;;
10122;SDS011;5101;49.038;8.710;2022-08-19T00:46:51;12.93;;;11.73;;
10122;SDS011;5101;49.038;8.710;2022-08-19T00:49:23;14.00;;;12.55;;
10122;SDS011;5101;49.038;8.710;2022-08-19T00:51:50;14.98;;;13.48;;
10122;SDS011;5101;49.038;8.710;2022-08-19T00:54:21;14.05;;;12.63;;
10122;SDS011;5101;49.038;8.710;2022-08-19T00:56:47;15.43;;;13.18;;
10122;SDS011;5101;49.038;8.710;2022-08-19T00:59:15;14.48;;;13.18;;
10122;SDS011;5101;49.038;8.710;2022-08-19T01:01:43;13.93;;;12.50;;
10122;SDS011;5101;49.038;8.710;2022-08-19T01:04:10;15.32;;;13.23;;
10122;SDS011;5101;49.038;8.710;2022-08-19T01:06:36;15.60;;;14.00;;
10122;SDS011;5101;49.038;8.710;2022-08-19T01:09:04;15.45;;;14.07;;
10122;SDS011;5101;49.038;8.710;2022-08-19T01:11:30;14.30;;;12.90;;
10122;SDS011;5101;49.038;8.710;2022-08-19T01:13:59;15.85;;;14.35;;
10122;SDS011;5101;49.038;8.710;2022-08-19T01:16:25;15.48;;;14.02;;
10122;SDS011;5101;49.038;8.710;2022-08-19T01:18:53;14.98;;;13.57;;
10122;SDS011;5101;49.038;8.710;2022-08-19T01:21:24;15.00;;;13.57;;
10122;SDS011;5101;49.038;8.710;2022-08-19T01:23:55;15.45;;;14.05;;
10122;SDS011;5101;49.038;8.710;2022-08-19T01:26:22;15.32;;;13.88;;
10122;SDS011;5101;49.038;8.710;2022-08-19T01:28:49;17.25;;;15.63;;
10122;SDS011;5101;49.038;8.710;2022-08-19T01:31:18;17.90;;;16.10;;
10122;SDS011;5101;49.038;8.710;2022-08-19T01:33:46;15.48;;;13.98;;
10122;SDS011;5101;49.038;8.710;2022-08-19T01:36:14;16.65;;;14.15;;
10122;SDS011;5101;49.038;8.710;2022-08-19T01:38:46;16.20;;;14.65;;
10122;SDS011;5101;49.038;8.710;2022-08-19T01:41:14;15.38;;;14.07;;
10122;SDS011;5101;49.038;8.710;2022-08-19T01:43:40;16.38;;;14.60;;
10122;SDS011;5101;49.038;8.710;2022-08-19T01:46:05;16.05;;;14.60;;
10122;SDS011;5101;49.038;8.710;2022-08-19T01:48:36;14.40;;;13.00;;
10122;SDS011;5101;49.038;8.710;2022-08-19T01:51:03;15.32;;;13.90;;
10122;SDS011;5101;49.038;8.710;2022-08-19T01:53:29;15.40;;;13.90;;
10122;SDS011;5101;49.038;8.710;2022-08-19T01:55:55;16.40;;;14.80;;
10122;SDS011;5101;49.038;8.710;2022-08-19T01:58:23;17.25;;;15.65;;
10122;SDS011;5101;49.038;8.710;2022-08-19T02:00:54;16.15;;;14.63;;
10122;SDS011;5101;49.038;8.710;2022-08-19T02:03:19;16.33;;;14.95;;
10122;SDS011;5101;49.038;8.710;2022-08-19T02:05:45;16.67;;;15.00;;
10122;SDS011;5101;49.038;8.710;2022-08-19T02:08:10;16.77;;;15.15;;
10122;SDS011;5101;49.038;8.710;2022-08-19T02:10:41;16.95;;;15.13;;
10122;SDS011;5101;49.038;8.710;2022-08-19T02:13:08;17.10;;;15.40;;
10122;SDS011;5101;49.038;8.710;2022-08-19T02:15:34;17.45;;;15.70;;
10122;SDS011;5101;49.038;8.710;2022-08-19T02:17:59;15.48;;;14.02;;
10122;SDS011;5101;49.038;8.710;2022-08-19T02:20:25;17.88;;;16.17;;
10122;SDS011;5101;49.038;8.710;2022-08-19T02:22:50;17.13;;;15.40;;
10122;SDS011;5101;49.038;8.710;2022-08-19T02:25:17;16.77;;;15.02;;
10122;SDS011;5101;49.038;8.710;2022-08-19T02:27:42;18.67;;;16.88;;
10122;SDS011;5101;49.038;8.710;2022-08-19T02:30:10;18.02;;;16.33;;
10122;SDS011;5101;49.038;8.710;2022-08-19T02:32:37;17.30;;;15.80;;
10122;SDS011;5101;49.038;8.710;2022-08-19T02:35:04;17.13;;;15.63;;
10122;SDS011;5101;49.038;8.710;2022-08-19T02:37:30;17.48;;;15.77;;
10122;SDS011;5101;49.038;8.710;2022-08-19T02:40:14;16.90;;;15.20;;
10122;SDS011;5101;49.038;8.710;2022-08-19T02:42:42;18.67;;;16.98;;
10122;SDS011;5101;49.038;8.710;2022-08-19T02:45:08;17.38;;;15.55;;
10122;SDS011;5101;49.038;8.710;2022-08-19T02:47:34;18.00;;;16.42;;
10122;SDS011;5101;49.038;8.710;2022-08-19T02:50:00;17.17;;;15.48;;
10122;SDS011;5101;49.038;8.710;2022-08-19T02:52:27;17.48;;;15.82;;
10122;SDS011;5101;49.038;8.710;2022-08-19T02:54:53;17.00;;;15.48;;
10122;SDS011;5101;49.038;8.710;2022-08-19T02:57:22;18.05;;;16.15;;
10122;SDS011;5101;49.038;8.710;2022-08-19T02:59:48;16.67;;;15.20;;
10122;SDS011;5101;49.038;8.710;2022-08-19T03:02:14;18.73;;;16.85;;
10122;SDS011;5101;49.038;8.710;2022-08-19T03:04:40;16.83;;;15.32;;
10122;SDS011;5101;49.038;8.710;2022-08-19T03:07:07;16.23;;;14.75;;
10122;SDS011;5101;49.038;8.710;2022-08-19T03:09:33;18.10;;;16.40;;
10122;SDS011;5101;49.038;8.710;2022-08-19T03:12:01;18.25;;;16.50;;
10122;SDS011;5101;49.038;8.710;2022-08-19T03:14:32;17.55;;;15.75;;
10122;SDS011;5101;49.038;8.710;2022-08-19T03:16:58;18.27;;;16.45;;
10122;SDS011;5101;49.038;8.710;2022-08-19T03:19:24;18.00;;;16.23;;
10122;SDS011;5101;49.038;8.710;2022-08-19T03:21:50;17.85;;;16.25;;
10122;SDS011;5101;49.038;8.710;2022-08-19T03:24:16;18.10;;;16.30;;
10122;SDS011;5101;49.038;8.710;2022-08-19T03:26:44;18.27;;;16.40;;
10122;SDS011;5101;49.038;8.710;2022-08-19T03:29:13;18.63;;;17.02;;
10122;SDS011;5101;49.038;8.710;2022-08-19T03:31:40;18.10;;;16.33;;
10122;SDS011;5101;49.038;8.710;2022-08-19T03:34:08;17.55;;;16.05;;
10122;SDS011;5101;49.038;8.710;2022-08-19T03:36:36;18.67;;;16.77;;
10122;SDS011;5101;49.038;8.710;2022-08-19T03:39:01;18.17;;;16.52;;
10122;SDS011;5101;49.038;8.710;2022-08-19T03:41:28;18.33;;;16.70;;
10122;SDS011;5101;49.038;8.710;2022-08-19T03:43:56;18.58;;;16.88;;
10122;SDS011;5101;49.038;8.710;2022-08-19T03:46:27;19.73;;;17.60;;
10122;SDS011;5101;49.038;8.710;2022-08-19T03:48:55;17.92;;;16.13;;
10122;SDS011;5101;49.038;8.710;2022-08-19T03:51:26;19.27;;;17.58;;
10122;SDS011;5101;49.038;8.710;2022-08-19T03:53:55;20.27;;;18.17;;
10122;SDS011;5101;49.038;8.710;2022-08-19T03:56:22;19.20;;;17.38;;
10122;SDS011;5101;49.038;8.710;2022-08-19T03:58:50;18.70;;;16.88;;
10122;SDS011;5101;49.038;8.710;2022-08-19T04:01:17;18.15;;;16.58;;
10122;SDS011;5101;49.038;8.710;2022-08-19T04:03:44;18.35;;;16.63;;
10122;SDS011;5101;49.038;8.710;2022-08-19T04:06:15;18.85;;;17.13;;
10122;SDS011;5101;49.038;8.710;2022-08-19T04:08:44;18.90;;;17.17;;
10122;SDS011;5101;49.038;8.710;2022-08-19T04:11:12;18.98;;;17.17;;
10122;SDS011;5101;49.038;8.710;2022-08-19T04:13:39;19.27;;;17.48;;
10122;SDS011;5101;49.038;8.710;2022-08-19T04:16:05;18.83;;;17.15;;
10122;SDS011;5101;49.038;8.710;2022-08-19T04:18:32;18.65;;;16.90;;
10122;SDS011;5101;49.038;8.710;2022-08-19T04:20:58;19.55;;;17.75;;
10122;SDS011;5101;49.038;8.710;2022-08-19T04:23:24;17.95;;;16.20;;
10122;SDS011;5101;49.038;8.710;2022-08-19T04:25:50;18.77;;;17.10;;
10122;SDS011;5101;49.038;8.710;2022-08-19T04:28:15;19.10;;;17.17;;
10122;SDS011;5101;49.038;8.710;2022-08-19T04:30:42;18.33;;;16.63;;
10122;SDS011;5101;49.038;8.710;2022-08-19T04:33:13;18.73;;;17.13;;
10122;SDS011;5101;49.038;8.710;2022-08-19T04:35:42;18.65;;;16.95;;
10122;SDS011;5101;49.038;8.710;2022-08-19T04:38:09;19.25;;;17.55;;
10122;SDS011;5101;49.038;8.710;2022-08-19T04:40:39;20.35;;;18.45;;
10122;SDS011;5101;49.038;8.710;2022-08-19T04:43:25;19.73;;;17.80;;
10122;SDS011;5101;49.038;8.710;2022-08-19T04:45:51;18.60;;;16.77;;
10122;SDS011;5101;49.038;8.710;2022-08-19T04:48:17;20.52;;;18.63;;
10122;SDS011;5101;49.038;8.710;2022-08-19T04:50:51;19.50;;;17.80;;
10122;SDS011;5101;49.038;8.710;2022-08-19T04:53:22;19.13;;;17.38;;
10122;SDS011;5101;49.038;8.710;2022-08-19T04:55:58;18.23;;;16.42;;
10122;SDS011;5101;49.038;8.710;2022-08-19T04:58:26;19.30;;;17.52;;
10122;SDS011;5101;49.038;8.710;2022-08-19T05:00:52;19.13;;;17.40;;
10122;SDS011;5101;49.038;8.710;2022-08-19T05:03:18;18.25;;;16.65;;
10122;SDS011;5101;49.038;8.710;2022-08-19T05:05:45;17.95;;;16.23;;
10122;SDS011;5101;49.038;8.710;2022-08-19T05:08:13;18.73;;;16.90;;
10122;SDS011;5101;49.038;8.710;2022-08-19T05:10:44;19.77;;;17.80;;
10122;SDS011;5101;49.038;8.710;2022-08-19T05:13:10;18.67;;;16.73;;
10122;SDS011;5101;49.038;8.710;2022-08-19T05:15:36;18.90;;;17.20;;
10122;SDS011;5101;49.038;8.710;2022-08-19T05:18:01;20.08;;;17.95;;
10122;SDS011;5101;49.038;8.710;2022-08-19T05:20:45;18.70;;;16.88;;
10122;SDS011;5101;49.038;8.710;2022-08-19T05:23:30;19.08;;;17.08;;
10122;SDS011;5101;49.038;8.710;2022-08-19T05:25:55;19.52;;;17.83;;
10122;SDS011;5101;49.038;8.710;2022-08-19T05:28:21;18.60;;;16.60;;
10122;SDS011;5101;49.038;8.710;2022-08-19T05:30:46;19.00;;;17.30;;
10122;SDS011;5101;49.038;8.710;2022-08-19T05:33:13;17.13;;;15.63;;
10122;SDS011;5101;49.038;8.710;2022-08-19T05:35:39;16.58;;;15.18;;
10122;SDS011;5101;49.038;8.710;2022-08-19T05:38:06;18.15;;;16.55;;
10122;SDS011;5101;49.038;8.710;2022-08-19T05:40:36;17.52;;;15.98;;
10122;SDS011;5101;49.038;8.710;2022-08-19T05:43:04;18.02;;;16.25;;
10122;SDS011;5101;49.038;8.710;2022-08-19T05:45:31;17.77;;;16.17;;
10122;SDS011;5101;49.038;8.710;2022-08-19T05:47:57;17.13;;;15.18;;
10122;SDS011;5101;49.038;8.710;2022-08-19T05:50:23;16.85;;;15.35;;
10122;SDS011;5101;49.038;8.710;2022-08-19T05:52:51;17.40;;;15.73;;
10122;SDS011;5101;49.038;8.710;2022-08-19T05:55:17;17.80;;;16.10;;
10122;SDS011;5101;49.038;8.710;2022-08-19T05:57:45;16.75;;;15.23;;
10122;SDS011;5101;49.038;8.710;2022-08-19T06:00:11;17.52;;;15.82;;
10122;SDS011;5101;49.038;8.710;2022-08-19T06:02:38;16.73;;;15.23;;
10122;SDS011;5101;49.038;8.710;2022-08-19T06:05:04;16.55;;;15.05;;
10122;SDS011;5101;49.038;8.710;2022-08-19T06:07:33;18.17;;;16.48;;
10122;SDS011;5101;49.038;8.710;2022-08-19T06:10:03;15.70;;;14.23;;
10122;SDS011;5101;49.038;8.710;2022-08-19T06:12:31;17.30;;;15.73;;
10122;SDS011;5101;49.038;8.710;2022-08-19T06:15:01;17.67;;;14.75;;
10122;SDS011;5101;49.038;8.710;2022-08-19T06:17:29;17.75;;;15.90;;
10122;SDS011;5101;49.038;8.710;2022-08-19T06:19:55;17.25;;;15.75;;
10122;SDS011;5101;49.038;8.710;2022-08-19T06:22:21;17.80;;;16.25;;
10122;SDS011;5101;49.038;8.710;2022-08-19T06:24:46;16.08;;;14.73;;
10122;SDS011;5101;49.038;8.710;2022-08-19T06:27:12;16.33;;;14.88;;
10122;SDS011;5101;49.038;8.710;2022-08-19T06:29:37;17.55;;;15.93;;
10122;SDS011;5101;49.038;8.710;2022-08-19T06:32:03;16.08;;;14.77;;
10122;SDS011;5101;49.038;8.710;2022-08-19T06:34:30;15.57;;;14.15;;
10122;SDS011;5101;49.038;8.710;2022-08-19T06:36:58;16.05;;;14.45;;
10122;SDS011;5101;49.038;8.710;2022-08-19T06:39:26;17.48;;;14.75;;
10122;SDS011;5101;49.038;8.710;2022-08-19T06:41:55;16.10;;;14.75;;
10122;SDS011;5101;49.038;8.710;2022-08-19T06:44:25;16.02;;;14.60;;
10122;SDS011;5101;49.038;8.710;2022-08-19T06:46:52;15.85;;;14.45;;
10122;SDS011;5101;49.038;8.710;2022-08-19T06:49:18;15.32;;;13.80;;
10122;SDS011;5101;49.038;8.710;2022-08-19T06:51:44;15.35;;;14.02;;
10122;SDS011;5101;49.038;8.710;2022-08-19T06:54:12;15.55;;;13.95;;
10122;SDS011;5101;49.038;8.710;2022-08-19T06:56:39;16.27;;;14.82;;
10122;SDS011;5101;49.038;8.710;2022-08-19T06:59:07;14.60;;;13.30;;
10122;SDS011;5101;49.038;8.710;2022-08-19T07:01:40;13.80;;;12.60;;
10122;SDS011;5101;49.038;8.710;2022-08-19T07:04:07;14.73;;;13.52;;
10122;SDS011;5101;49.038;8.710;2022-08-19T07:06:33;21.55;;;14.57;;
10122;SDS011;5101;49.038;8.710;2022-08-19T07:09:00;15.20;;;13.70;;
10122;SDS011;5101;49.038;8.710;2022-08-19T07:11:26;28.05;;;16.02;;
10122;SDS011;5101;49.038;8.710;2022-08-19T07:13:52;16.17;;;14.57;;
10122;SDS011;5101;49.038;8.710;2022-08-19T07:16:19;15.45;;;13.05;;
10122;SDS011;5101;49.038;8.710;2022-08-19T07:18:48;14.07;;;12.98;;
10122;SDS011;5101;49.038;8.710;2022-08-19T07:21:16;14.25;;;12.77;;
10122;SDS011;5101;49.038;8.710;2022-08-19T07:23:44;13.90;;;12.50;;
10122;SDS011;5101;49.038;8.710;2022-08-19T07:28:44;14.95;;;13.57;;
10122;SDS011;5101;49.038;8.710;2022-08-19T07:31:12;14.15;;;12.95;;
10122;SDS011;5101;49.038;8.710;2022-08-19T07:33:39;14.88;;;13.43;;
10122;SDS011;5101;49.038;8.710;2022-08-19T07:36:08;13.07;;;12.05;;
10122;SDS011;5101;49.038;8.710;2022-08-19T07:38:36;14.32;;;12.98;;
10122;SDS011;5101;49.038;8.710;2022-08-19T07:41:04;14.25;;;12.95;;
10122;SDS011;5101;49.038;8.710;2022-08-19T07:43:29;14.98;;;13.32;;
10122;SDS011;5101;49.038;8.710;2022-08-19T07:45:55;14.70;;;13.38;;
10122;SDS011;5101;49.038;8.710;2022-08-19T07:48:22;13.43;;;12.00;;
10122;SDS011;5101;49.038;8.710;2022-08-19T07:50:50;14.85;;;13.35;;
10122;SDS011;5101;49.038;8.710;2022-08-19T07:53:19;14.27;;;12.82;;
10122;SDS011;5101;49.038;8.710;2022-08-19T07:55:46;13.43;;;12.30;;
10122;SDS011;5101;49.038;8.710;2022-08-19T07:58:12;12.65;;;11.55;;
10122;SDS011;5101;49.038;8.710;2022-08-19T08:00:41;13.05;;;11.80;;
10122;SDS011;5101;49.038;8.710;2022-08-19T08:03:08;12.10;;;11.07;;
10122;SDS011;5101;49.038;8.710;2022-08-19T08:05:34;12.77;;;11.07;;
10122;SDS011;5101;49.038;8.710;2022-08-19T08:08:18;12.45;;;11.30;;
10122;SDS011;5101;49.038;8.710;2022-08-19T08:10:56;11.20;;;10.30;;
10122;SDS011;5101;49.038;8.710;2022-08-19T08:13:22;11.40;;;10.40;;
10122;SDS011;5101;49.038;8.710;2022-08-19T08:15:48;10.77;;;9.88;;
10122;SDS011;5101;49.038;8.710;2022-08-19T08:18:14;12.00;;;10.73;;
10122;SDS011;5101;49.038;8.710;2022-08-19T08:20:40;10.75;;;9.65;;
10122;SDS011;5101;49.038;8.710;2022-08-19T08:23:05;11.98;;;9.82;;
10122;SDS011;5101;49.038;8.710;2022-08-19T08:25:49;9.95;;;8.95;;
10122;SDS011;5101;49.038;8.710;2022-08-19T08:28:17;20.23;;;9.98;;
10122;SDS011;5101;49.038;8.710;2022-08-19T08:30:43;13.68;;;8.90;;
10122;SDS011;5101;49.038;8.710;2022-08-19T08:33:10;9.43;;;8.50;;
10122;SDS011;5101;49.038;8.710;2022-08-19T08:35:36;8.95;;;8.18;;
10122;SDS011;5101;49.038;8.710;2022-08-19T08:38:02;9.23;;;8.32;;
10122;SDS011;5101;49.038;8.710;2022-08-19T08:40:30;8.93;;;8.15;;
10122;SDS011;5101;49.038;8.710;2022-08-19T08:43:18;9.38;;;8.38;;
10122;SDS011;5101;49.038;8.710;2022-08-19T08:46:01;11.75;;;8.35;;
10122;SDS011;5101;49.038;8.710;2022-08-19T08:51:03;9.50;;;8.63;;
10122;SDS011;5101;49.038;8.710;2022-08-19T08:53:33;8.35;;;6.95;;
10122;SDS011;5101;49.038;8.710;2022-08-19T08:56:01;10.27;;;8.95;;
10122;SDS011;5101;49.038;8.710;2022-08-19T08:58:49;9.02;;;8.18;;
10122;SDS011;5101;49.038;8.710;2022-08-19T09:01:23;10.90;;;8.68;;
10122;SDS011;5101;49.038;8.710;2022-08-19T09:03:48;8.48;;;7.47;;
10122;SDS011;5101;49.038;8.710;2022-08-19T09:06:25;8.05;;;7.35;;
10122;SDS011;5101;49.038;8.710;2022-08-19T09:09:17;8.60;;;7.90;;
10122;SDS011;5101;49.038;8.710;2022-08-19T09:17:15;7.43;;;6.30;;
10122;SDS011;5101;49.038;8.710;2022-08-19T09:19:49;7.10;;;6.50;;
10122;SDS011;5101;49.038;8.710;2022-08-19T09:22:20;7.75;;;7.05;;
10122;SDS011;5101;49.038;8.710;2022-08-19T09:24:47;9.18;;;6.88;;
10122;SDS011;5101;49.038;8.710;2022-08-19T09:27:17;8.63;;;6.60;;
10122;SDS011;5101;49.038;8.710;2022-08-19T09:29:43;6.18;;;5.57;;
10122;SDS011;5101;49.038;8.710;2022-08-19T09:32:08;6.10;;;5.57;;
10122;SDS011;5101;49.038;8.710;2022-08-19T09:34:34;6.80;;;5.25;;
10122;SDS011;5101;49.038;8.710;2022-08-19T09:36:59;8.90;;;5.00;;
10122;SDS011;5101;49.038;8.710;2022-08-19T09:39:25;8.90;;;5.97;;
10122;SDS011;5101;49.038;8.710;2022-08-19T09:41:51;6.95;;;6.30;;
10122;SDS011;5101;49.038;8.710;2022-08-19T09:44:17;5.53;;;5.03;;
10122;SDS011;5101;49.038;8.710;2022-08-19T09:46:45;6.75;;;5.35;;
10122;SDS011;5101;49.038;8.710;2022-08-19T09:49:11;6.78;;;4.97;;
10122;SDS011;5101;49.038;8.710;2022-08-19T09:51:37;4.90;;;4.40;;
10122;SDS011;5101;49.038;8.710;2022-08-19T09:54:03;4.65;;;4.22;;
10122;SDS011;5101;49.038;8.710;2022-08-19T09:56:29;4.80;;;4.40;;
10122;SDS011;5101;49.038;8.710;2022-08-19T09:58:57;7.38;;;5.05;;
10122;SDS011;5101;49.038;8.710;2022-08-19T10:01:24;4.78;;;4.13;;
10122;SDS011;5101;49.038;8.710;2022-08-19T10:03:52;6.95;;;4.80;;
10122;SDS011;5101;49.038;8.710;2022-08-19T10:06:21;6.90;;;4.90;;
10122;SDS011;5101;49.038;8.710;2022-08-19T10:08:48;5.72;;;5.13;;
10122;SDS011;5101;49.038;8.710;2022-08-19T10:11:16;4.57;;;4.25;;
10122;SDS011;5101;49.038;8.710;2022-08-19T10:13:43;5.55;;;4.22;;
10122;SDS011;5101;49.038;8.710;2022-08-19T10:16:10;4.68;;;4.28;;
10122;SDS011;5101;49.038;8.710;2022-08-19T10:18:39;4.13;;;3.83;;
10122;SDS011;5101;49.038;8.710;2022-08-19T10:21:10;5.78;;;3.47;;
10122;SDS011;5101;49.038;8.710;2022-08-19T10:23:43;4.20;;;3.90;;
10122;SDS011;5101;49.038;8.710;2022-08-19T10:26:10;3.85;;;3.55;;
10122;SDS011;5101;49.038;8.710;2022-08-19T10:28:38;3.92;;;3.63;;
10122;SDS011;5101;49.038;8.710;2022-08-19T10:31:08;3.60;;;3.30;;
10122;SDS011;5101;49.038;8.710;2022-08-19T10:33:40;3.70;;;3.22;;
10122;SDS011;5101;49.038;8.710;2022-08-19T10:36:08;3.38;;;3.17;;
10122;SDS011;5101;49.038;8.710;2022-08-19T10:38:36;3.25;;;3.05;;
10122;SDS011;5101;49.038;8.710;2022-08-19T10:41:12;3.92;;;3.50;;
10122;SDS011;5101;49.038;8.710;2022-08-19T10:43:40;3.90;;;3.60;;
10122;SDS011;5101;49.038;8.710;2022-08-19T10:46:07;4.68;;;3.28;;
10122;SDS011;5101;49.038;8.710;2022-08-19T10:48:34;3.40;;;3.20;;
10122;SDS011;5101;49.038;8.710;2022-08-19T10:51:00;3.58;;;3.28;;
10122;SDS011;5101;49.038;8.710;2022-08-19T10:53:44;4.30;;;3.60;;
10122;SDS011;5101;49.038;8.710;2022-08-19T10:56:09;5.78;;;2.88;;
10122;SDS011;5101;49.038;8.710;2022-08-19T10:58:54;3.70;;;3.38;;
10122;SDS011;5101;49.038;8.710;2022-08-19T11:01:22;4.32;;;3.20;;
10122;SDS011;5101;49.038;8.710;2022-08-19T11:03:47;3.38;;;3.05;;
10122;SDS011;5101;49.038;8.710;2022-08-19T11:06:13;5.15;;;3.58;;
10122;SDS011;5101;49.038;8.710;2022-08-19T11:08:38;3.00;;;2.65;;
10122;SDS011;5101;49.038;8.710;2022-08-19T11:11:04;4.00;;;3.67;;
10122;SDS011;5101;49.038;8.710;2022-08-19T11:13:33;4.85;;;3.60;;
10122;SDS011;5101;49.038;8.710;2022-08-19T11:16:02;5.70;;;3.55;;
10122;SDS011;5101;49.038;8.710;2022-08-19T11:18:29;4.03;;;3.40;;
10122;SDS011;5101;49.038;8.710;2022-08-19T11:21:04;4.63;;;3.72;;
10122;SDS011;5101;49.038;8.710;2022-08-19T11:23:33;3.60;;;3.40;;
10122;SDS011;5101;49.038;8.710;2022-08-19T11:25:58;5.03;;;2.85;;
10122;SDS011;5101;49.038;8.710;2022-08-19T11:28:26;3.05;;;2.85;;
10122;SDS011;5101;49.038;8.710;2022-08-19T11:30:51;3.80;;;3.50;;
10122;SDS011;5101;49.038;8.710;2022-08-19T11:33:17;4.05;;;3.75;;
10122;SDS011;5101;49.038;8.710;2022-08-19T11:35:43;6.15;;;4.03;;
10122;SDS011;5101;49.038;8.710;2022-08-19T11:38:08;6.55;;;4.20;;
10122;SDS011;5101;49.038;8.710;2022-08-19T11:40:34;4.40;;;4.10;;
10122;SDS011;5101;49.038;8.710;2022-08-19T11:42:59;3.63;;;3.33;;
10122;SDS011;5101;49.038;8.710;2022-08-19T11:45:25;4.05;;;3.63;;
10122;SDS011;5101;49.038;8.710;2022-08-19T11:47:52;4.72;;;4.20;;
10122;SDS011;5101;49.038;8.710;2022-08-19T11:50:19;4.18;;;3.88;;
10122;SDS011;5101;49.038;8.710;2022-08-19T11:52:45;3.95;;;3.67;;
10122;SDS011;5101;49.038;8.710;2022-08-19T11:55:11;8.15;;;3.42;;
10122;SDS011;5101;49.038;8.710;2022-08-19T11:57:38;3.50;;;3.25;;
10122;SDS011;5101;49.038;8.710;2022-08-19T12:00:04;4.30;;;3.78;;
10122;SDS011;5101;49.038;8.710;2022-08-19T12:02:32;3.45;;;3.25;;
10122;SDS011;5101;49.038;8.710;2022-08-19T12:04:57;4.82;;;4.13;;
10122;SDS011;5101;49.038;8.710;2022-08-19T12:07:23;4.30;;;3.80;;
10122;SDS011;5101;49.038;8.710;2022-08-19T12:09:49;4.03;;;3.63;;
10122;SDS011;5101;49.038;8.710;2022-08-19T12:12:15;4.90;;;3.10;;
10122;SDS011;5101;49.038;8.710;2022-08-19T12:14:41;3.85;;;3.22;;
10122;SDS011;5101;49.038;8.710;2022-08-19T12:17:06;4.35;;;3.15;;
10122;SDS011;5101;49.038;8.710;2022-08-19T12:19:35;4.22;;;3.80;;
10122;SDS011;5101;49.038;8.710;2022-08-19T12:22:01;4.57;;;3.72;;
10122;SDS011;5101;49.038;8.710;2022-08-19T12:24:29;5.47;;;3.78;;
10122;SDS011;5101;49.038;8.710;2022-08-19T12:26:56;2.72;;;2.63;;
10122;SDS011;5101;49.038;8.710;2022-08-19T12:29:23;4.75;;;3.25;;
10122;SDS011;5101;49.038;8.710;2022-08-19T12:31:53;3.83;;;3.53;;
10122;SDS011;5101;49.038;8.710;2022-08-19T12:34:19;3.25;;;3.05;;
10122;SDS011;5101;49.038;8.710;2022-08-19T12:36:45;3.60;;;3.40;;
10122;SDS011;5101;49.038;8.710;2022-08-19T12:39:10;3.38;;;3.17;;
10122;SDS011;5101;49.038;8.710;2022-08-19T12:41:36;3.83;;;3.53;;
10122;SDS011;5101;49.038;8.710;2022-08-19T12:44:02;4.07;;;3.17;;
10122;SDS011;5101;49.038;8.710;2022-08-19T12:46:28;5.85;;;3.50;;
10122;SDS011;5101;49.038;8.710;2022-08-19T12:48:53;3.88;;;3.20;;
10122;SDS011;5101;49.038;8.710;2022-08-19T12:51:19;3.90;;;3.60;;
10122;SDS011;5101;49.038;8.710;2022-08-19T12:53:45;3.55;;;3.25;;
10122;SDS011;5101;49.038;8.710;2022-08-19T12:56:11;3.78;;;3.53;;
10122;SDS011;5101;49.038;8.710;2022-08-19T12:58:39;4.78;;;3.60;;
10122;SDS011;5101;49.038;8.710;2022-08-19T13:01:10;3.47;;;3.17;;
10122;SDS011;5101;49.038;8.710;2022-08-19T13:03:37;3.60;;;3.30;;
10122;SDS011;5101;49.038;8.710;2022-08-19T13:06:03;4.53;;;3.22;;
10122;SDS011;5101;49.038;8.710;2022-08-19T13:08:29;3.38;;;2.92;;
10122;SDS011;5101;49.038;8.710;2022-08-19T13:10:54;3.00;;;2.80;;
10122;SDS011;5101;49.038;8.710;2022-08-19T13:13:20;3.60;;;2.85;;
10122;SDS011;5101;49.038;8.710;2022-08-19T13:15:46;3.35;;;3.08;;
10122;SDS011;5101;49.038;8.710;2022-08-19T13:18:12;3.30;;;3.10;;
10122;SDS011;5101;49.038;8.710;2022-08-19T13:20:39;5.53;;;3.40;;
10122;SDS011;5101;49.038;8.710;2022-08-19T13:23:08;3.63;;;3.40;;
10122;SDS011;5101;49.038;8.710;2022-08-19T13:25:35;3.00;;;2.63;;
10122;SDS011;5101;49.038;8.710;2022-08-19T13:28:01;3.20;;;3.00;;
10122;SDS011;5101;49.038;8.710;2022-08-19T13:30:27;3.60;;;3.30;;
10122;SDS011;5101;49.038;8.710;2022-08-19T13:33:11;5.10;;;3.38;;
10122;SDS011;5101;49.038;8.710;2022-08-19T13:35:58;3.47;;;3.25;;
10122;SDS011;5101;49.038;8.710;2022-08-19T13:38:25;3.83;;;3.53;;
10122;SDS011;5101;49.038;8.710;2022-08-19T13:40:52;5.22;;;3.65;;
10122;SDS011;5101;49.038;8.710;2022-08-19T13:43:19;4.50;;;4.03;;
10122;SDS011;5101;49.038;8.710;2022-08-19T13:45:50;4.35;;;3.70;;
10122;SDS011;5101;49.038;8.710;2022-08-19T13:48:18;4.38;;;4.07;;
10122;SDS011;5101;49.038;8.710;2022-08-19T13:50:44;4.90;;;4.50;;
10122;SDS011;5101;49.038;8.710;2022-08-19T13:53:12;4.82;;;4.53;;
10122;SDS011;5101;49.038;8.710;2022-08-19T13:55:38;4.85;;;4.45;;
10122;SDS011;5101;49.038;8.710;2022-08-19T13:58:05;5.00;;;4.60;;
10122;SDS011;5101;49.038;8.710;2022-08-19T14:00:33;5.40;;;5.00;;
10122;SDS011;5101;49.038;8.710;2022-08-19T14:03:01;5.60;;;4.65;;
10122;SDS011;5101;49.038;8.710;2022-08-19T14:05:28;4.72;;;4.40;;
10122;SDS011;5101;49.038;8.710;2022-08-19T14:07:55;5.07;;;4.68;;
10122;SDS011;5101;49.038;8.710;2022-08-19T14:10:21;5.60;;;4.10;;
10122;SDS011;5101;49.038;8.710;2022-08-19T14:12:48;5.00;;;4.10;;
10122;SDS011;5101;49.038;8.710;2022-08-19T14:15:14;4.10;;;3.80;;
10122;SDS011;5101;49.038;8.710;2022-08-19T14:17:41;4.53;;;3.50;;
10122;SDS011;5101;49.038;8.710;2022-08-19T14:20:08;6.70;;;3.83;;
10122;SDS011;5101;49.038;8.710;2022-08-19T14:22:36;4.40;;;3.38;;
10122;SDS011;5101;49.038;8.710;2022-08-19T14:25:04;3.80;;;3.50;;
10122;SDS011;5101;49.038;8.710;2022-08-19T14:27:35;6.80;;;3.97;;
10122;SDS011;5101;49.038;8.710;2022-08-19T14:30:02;4.40;;;4.20;;
10122;SDS011;5101;49.038;8.710;2022-08-19T14:32:29;4.28;;;3.92;;
10122;SDS011;5101;49.038;8.710;2022-08-19T14:34:54;4.35;;;3.95;;
10122;SDS011;5101;49.038;8.710;2022-08-19T14:37:20;4.20;;;3.47;;
10122;SDS011;5101;49.038;8.710;2022-08-19T14:39:47;3.30;;;3.00;;
10122;SDS011;5101;49.038;8.710;2022-08-19T14:42:12;3.25;;;2.92;;
10122;SDS011;5101;49.038;8.710;2022-08-19T14:44:42;3.33;;;2.97;;
10122;SDS011;5101;49.038;8.710;2022-08-19T14:47:09;3.47;;;3.17;;
10122;SDS011;5101;49.038;8.710;2022-08-19T14:49:35;3.50;;;3.20;;
10122;SDS011;5101;49.038;8.710;2022-08-19T14:52:01;3.25;;;3.05;;
10122;SDS011;5101;49.038;8.710;2022-08-19T14:54:27;3.20;;;3.00;;
10122;SDS011;5101;49.038;8.710;2022-08-19T14:56:53;3.20;;;2.90;;
10122;SDS011;5101;49.038;8.710;2022-08-19T14:59:19;2.97;;;2.78;;